Mountain Home, ID

10:59:MST den 27. november 2014 (GMT -0700)
Mountain Home Air Force Base | Change Station
CLOSE
Current Station
Flyplass
Location: Mountain Home,
Høyde over havet: 2995 ft
Nearby Weather Stations

H.o.h 2995 ft 43.04 °N, 115.87 °W | Updated 1 hour ago

Overskyet
Overskyet
47 °F
Feels Like 47 °F
N
9
Vind Variabel Vind from Øst

I dag
High -- | Low -- °F
--% Chance of Precip.
I går
High -- | Low -- °F
Precip. -- tommer
7:50 AM 5:10 PM
Økende sigd, 31% visible
Lufttrykk 30.18 tommer
Sikt 10.0 eng. mil
Skyet For det meste skyet 10000 ft
Overskyet 16000 ft
Duggpunkt 40 °F
Fuktighet 79%
Regn 0.00 tommer
Snødybde Not available.
UV 0 av 12
Pollen 1.10 av 12
Luftkvalitet Not available.
Flu Activity Not available.
METAR KMUO 271658Z AUTO 10008KT 10SM BKN100 OVC160 08/05 A3016 RMK AO2 SLP218 T00820047

More Conditions Fewer Conditions

Lufttrykk 30.18 tommer
Sikt 10.0 eng. mil
Skyet For det meste skyet 10000 ft
Overskyet 16000 ft
Duggpunkt 40 °F
Fuktighet 79%
Regn 0.00 tommer
Snødybde Not available.
UV 0 av 12
Pollen 1.10 av 12
Luftkvalitet Not available.
Flu Activity Not available.
METAR KMUO 271658Z AUTO 10008KT 10SM BKN100 OVC160 08/05 A3016 RMK AO2 SLP218 T00820047

More Conditions Fewer Conditions

10-Day Weather Forecast

Almanac

Astronomi

Nov. 27, 2014 Oppgang Nedgang
Virkelig tid
Tussmørke
Nautisk skumring
Astronomisk skumring
Månen
Lengde av synlig lys
Dagens lengde
Tomorrow will be .
, % of the Moon is Illuminated

Dagens maks og min

State Highs State Lows

Community

WunderPhotos

Upload Photos

1,774,061 photos uploaded!

WunderBlogs® & News

Nearby

Luftkvalitet

  Luftkvalitet AQ Indeks Forurensing
Not available.

Snødybde

Stasjon Depth Høyde over havet

Earthquake Activity

By Distance Mag. Time & Date
Minimum magnitude displayed is 2.5.

Coastal Water Temperatures

Sted Temperatur

Nearby Weather Stations